Tsogt-Ovoo, Mongolia
Current Conditions -  °F | °C
As of 8:00 PM on Saturday 20 Dec 2014 (Local Time) from ZMUB Reporting Station
Clear Clear  
Wind Chill: -12°   Ceiling: Unl
Heat Index: -2°   Visibility: 6mi
Dew Point: -9°   Wind: 4mph
Humidity: 71%   Direction: 170°S
Pressure: 30.33"   Gusts: NA
Location:  44.42°N, 105.32°E
Report Text: ZMUB 201200Z 17002MPS CAVOK M19/M23 Q1027 NOSIG RMK QFE661.8 69 NT
Loading
Personal Weather Stations






























Interactive Weather Map New forecast layout! Learn more

10-Day Weather Forecast

Advertisements
Track Severe Weather on mobile